NKS2405 KMCO-KATL
Flight info
| Callsign | NKS2405 |
|---|---|
| Flight time | 1h 2m |
| Altitude | 36000 |
| Route | JEEMY4 PAINN SHRKS LAIRI LARZZ JJEDI4 |
| Aircraft | A320/M-SDE3FGHIRWY/LB1 |
Departure
| Time | 2026-05-03 21:50 |
|---|---|
| Airport | Orlando International Airport (KMCO) |
Arrival
| Time | 2026-05-03 22:52 |
|---|---|
| Airport | Hartsfield Jackson Atlanta International Airport (KATL) |
| Time | Latitude | Longitude | Altitude | Speed | Heading |
|---|---|---|---|---|---|
| 2026-05-03 21:25 | 28.43363 | -81.31479 | 101 ft | 0 kts | 327° |
| 2026-05-03 21:40 | 28.43351 | -81.31470 | 100 ft | 4 kts | 323° |
| 2026-05-03 21:40 | 28.43332 | -81.31450 | 101 ft | 4 kts | 294° |
| 2026-05-03 21:41 | 28.43330 | -81.31430 | 101 ft | 0 kts | 236° |
| 2026-05-03 21:44 | 28.43328 | -81.31434 | 102 ft | 3 kts | 236° |
| 2026-05-03 21:44 | 28.43308 | -81.31468 | 102 ft | 7 kts | 236° |
| 2026-05-03 21:44 | 28.43273 | -81.31533 | 101 ft | 13 kts | 246° |
| 2026-05-03 21:45 | 28.43279 | -81.31648 | 102 ft | 17 kts | 281° |
| 2026-05-03 21:45 | 28.43248 | -81.31790 | 101 ft | 22 kts | 235° |
| 2026-05-03 21:45 | 28.43115 | -81.31836 | 103 ft | 21 kts | 182° |
| 2026-05-03 21:45 | 28.42958 | -81.31836 | 102 ft | 24 kts | 179° |
| 2026-05-03 21:46 | 28.42801 | -81.31835 | 104 ft | 23 kts | 179° |
| 2026-05-03 21:46 | 28.42639 | -81.31832 | 106 ft | 24 kts | 178° |
| 2026-05-03 21:46 | 28.42463 | -81.31830 | 106 ft | 27 kts | 179° |
| 2026-05-03 21:46 | 28.42294 | -81.31830 | 107 ft | 24 kts | 179° |
| 2026-05-03 21:47 | 28.42124 | -81.31870 | 106 ft | 26 kts | 192° |
| 2026-05-03 21:47 | 28.41945 | -81.31876 | 103 ft | 17 kts | 179° |
| 2026-05-03 21:47 | 28.41820 | -81.31874 | 103 ft | 19 kts | 180° |
| 2026-05-03 21:47 | 28.41677 | -81.31873 | 101 ft | 22 kts | 179° |
| 2026-05-03 21:48 | 28.41549 | -81.31903 | 99 ft | 15 kts | 241° |
| 2026-05-03 21:48 | 28.41544 | -81.32025 | 100 ft | 16 kts | 270° |
| 2026-05-03 21:48 | 28.41544 | -81.32145 | 102 ft | 13 kts | 270° |
| 2026-05-03 21:48 | 28.41606 | -81.32200 | 102 ft | 14 kts | 359° |
| 2026-05-03 21:49 | 28.41738 | -81.32200 | 100 ft | 38 kts | 0° |
| 2026-05-03 21:49 | 28.42235 | -81.32203 | 107 ft | 102 kts | 360° |
| 2026-05-03 21:49 | 28.43115 | -81.32214 | 101 ft | 150 kts | 359° |
| 2026-05-03 21:49 | 28.44252 | -81.32221 | 384 ft | 169 kts | 357° |
| 2026-05-03 21:50 | 28.45433 | -81.32271 | 1102 ft | 171 kts | 4° |
| 2026-05-03 21:50 | 28.46633 | -81.32285 | 1801 ft | 174 kts | 4° |
| 2026-05-03 21:50 | 28.47910 | -81.32283 | 2159 ft | 195 kts | 4° |
| 2026-05-03 21:50 | 28.49363 | -81.32272 | 2485 ft | 223 kts | 3° |
| 2026-05-03 21:51 | 28.50973 | -81.32265 | 3188 ft | 234 kts | 3° |
| 2026-05-03 21:51 | 28.52602 | -81.32272 | 4190 ft | 233 kts | 2° |
| 2026-05-03 21:51 | 28.54272 | -81.32293 | 4940 ft | 245 kts | 360° |
| 2026-05-03 21:51 | 28.56009 | -81.32492 | 5586 ft | 261 kts | 350° |
| 2026-05-03 21:52 | 28.57845 | -81.32840 | 6316 ft | 272 kts | 348° |
| 2026-05-03 21:52 | 28.59727 | -81.33225 | 7166 ft | 277 kts | 347° |
| 2026-05-03 21:52 | 28.61642 | -81.33623 | 7985 ft | 282 kts | 346° |
| 2026-05-03 21:52 | 28.63576 | -81.34048 | 8818 ft | 285 kts | 343° |
| 2026-05-03 21:53 | 28.65525 | -81.34540 | 9634 ft | 288 kts | 342° |
| 2026-05-03 21:53 | 28.67504 | -81.35070 | 10276 ft | 299 kts | 341° |
| 2026-05-03 21:53 | 28.69606 | -81.35647 | 10527 ft | 321 kts | 341° |
| 2026-05-03 21:53 | 28.71792 | -81.36237 | 11041 ft | 332 kts | 341° |
| 2026-05-03 21:54 | 28.74062 | -81.36833 | 11711 ft | 337 kts | 341° |
| 2026-05-03 21:54 | 28.76375 | -81.37391 | 12403 ft | 343 kts | 342° |
| 2026-05-03 21:54 | 28.78735 | -81.37897 | 13088 ft | 348 kts | 343° |
| 2026-05-03 21:54 | 28.81132 | -81.38383 | 13764 ft | 352 kts | 343° |
| 2026-05-03 21:55 | 28.83568 | -81.38869 | 14381 ft | 357 kts | 343° |
| 2026-05-03 21:55 | 28.86023 | -81.39363 | 14973 ft | 360 kts | 343° |
| 2026-05-03 21:55 | 28.88502 | -81.39871 | 15564 ft | 364 kts | 342° |
| 2026-05-03 21:55 | 28.91002 | -81.40391 | 16159 ft | 367 kts | 342° |
| 2026-05-03 21:56 | 28.93525 | -81.40922 | 16748 ft | 370 kts | 342° |
| 2026-05-03 21:56 | 28.96078 | -81.41433 | 17335 ft | 375 kts | 344° |
| 2026-05-03 21:56 | 28.98685 | -81.41821 | 17955 ft | 381 kts | 347° |
| 2026-05-03 21:56 | 29.01337 | -81.42118 | 18513 ft | 385 kts | 348° |
| 2026-05-03 21:57 | 29.04028 | -81.42372 | 19024 ft | 389 kts | 348° |
| 2026-05-03 21:57 | 29.06741 | -81.42618 | 19541 ft | 392 kts | 348° |
| 2026-05-03 21:57 | 29.09470 | -81.42877 | 20073 ft | 395 kts | 348° |
| 2026-05-03 21:57 | 29.12220 | -81.43147 | 20603 ft | 398 kts | 348° |
| 2026-05-03 21:58 | 29.14989 | -81.43413 | 21112 ft | 401 kts | 348° |
| 2026-05-03 21:58 | 29.17784 | -81.43677 | 21609 ft | 404 kts | 347° |
| 2026-05-03 21:58 | 29.20598 | -81.43942 | 22091 ft | 407 kts | 347° |
| 2026-05-03 21:58 | 29.23432 | -81.44213 | 22577 ft | 410 kts | 347° |
| 2026-05-03 21:59 | 29.26288 | -81.44484 | 23064 ft | 413 kts | 347° |
| 2026-05-03 21:59 | 29.29163 | -81.44756 | 23586 ft | 416 kts | 347° |
| 2026-05-03 21:59 | 29.32059 | -81.45028 | 23994 ft | 419 kts | 347° |
| 2026-05-03 21:59 | 29.34977 | -81.45304 | 24398 ft | 422 kts | 347° |
| 2026-05-03 22:00 | 29.37869 | -81.45580 | 24773 ft | 424 kts | 347° |
| 2026-05-03 22:00 | 29.40828 | -81.45861 | 25149 ft | 428 kts | 347° |
| 2026-05-03 22:00 | 29.43801 | -81.46142 | 25529 ft | 430 kts | 346° |
| 2026-05-03 22:00 | 29.46799 | -81.46427 | 25906 ft | 433 kts | 346° |
| 2026-05-03 22:01 | 29.49812 | -81.46713 | 26282 ft | 436 kts | 346° |
| 2026-05-03 22:01 | 29.52850 | -81.47002 | 26653 ft | 439 kts | 346° |
| 2026-05-03 22:01 | 29.55906 | -81.47294 | 27068 ft | 442 kts | 346° |
| 2026-05-03 22:01 | 29.58978 | -81.47588 | 27423 ft | 445 kts | 346° |
| 2026-05-03 22:02 | 29.62078 | -81.47878 | 27775 ft | 448 kts | 346° |
| 2026-05-03 22:02 | 29.65197 | -81.48162 | 28127 ft | 451 kts | 346° |
| 2026-05-03 22:02 | 29.68335 | -81.48441 | 28484 ft | 454 kts | 346° |
| 2026-05-03 22:02 | 29.71499 | -81.48723 | 28837 ft | 457 kts | 346° |
| 2026-05-03 22:03 | 29.74677 | -81.49007 | 29182 ft | 460 kts | 346° |
| 2026-05-03 22:03 | 29.77876 | -81.49295 | 29548 ft | 463 kts | 346° |
| 2026-05-03 22:03 | 29.81097 | -81.49585 | 29913 ft | 466 kts | 346° |
| 2026-05-03 22:03 | 29.84338 | -81.49880 | 30289 ft | 468 kts | 346° |
| 2026-05-03 22:04 | 29.87594 | -81.50203 | 30567 ft | 468 kts | 342° |
| 2026-05-03 22:04 | 29.90755 | -81.50929 | 30859 ft | 458 kts | 333° |
| 2026-05-03 22:04 | 29.93792 | -81.52008 | 31184 ft | 457 kts | 332° |
| 2026-05-03 22:04 | 29.96832 | -81.53100 | 31521 ft | 458 kts | 332° |
| 2026-05-03 22:05 | 29.98847 | -81.53822 | 31825 ft | 457 kts | 332° |
| 2026-05-03 22:05 | 30.02856 | -81.55253 | 32495 ft | 453 kts | 332° |
| 2026-05-03 22:05 | 30.05861 | -81.56321 | 33013 ft | 450 kts | 332° |
| 2026-05-03 22:05 | 30.08847 | -81.57382 | 33531 ft | 448 kts | 331° |
| 2026-05-03 22:06 | 30.11812 | -81.58439 | 34055 ft | 445 kts | 331° |
| 2026-05-03 22:06 | 30.14756 | -81.59492 | 34534 ft | 442 kts | 331° |
| 2026-05-03 22:06 | 30.16707 | -81.60193 | 34770 ft | 442 kts | 330° |
| 2026-05-03 22:06 | 30.19647 | -81.61253 | 35043 ft | 443 kts | 330° |
| 2026-05-03 22:07 | 30.25513 | -81.63359 | 35138 ft | 438 kts | 330° |
| 2026-05-03 22:07 | 30.31316 | -81.65444 | 35136 ft | 436 kts | 330° |
| 2026-05-03 22:08 | 30.37111 | -81.67536 | 35126 ft | 436 kts | 330° |
| 2026-05-03 22:08 | 30.42912 | -81.69629 | 35119 ft | 437 kts | 330° |
| 2026-05-03 22:09 | 30.48714 | -81.71723 | 35119 ft | 437 kts | 330° |
| 2026-05-03 22:10 | 30.57430 | -81.74871 | 35123 ft | 437 kts | 330° |
| 2026-05-03 22:10 | 30.63152 | -81.77127 | 35136 ft | 425 kts | 322° |
| 2026-05-03 22:11 | 30.68416 | -81.80153 | 35143 ft | 422 kts | 321° |
| 2026-05-03 22:11 | 30.73681 | -81.83197 | 35193 ft | 422 kts | 321° |
| 2026-05-03 22:12 | 30.78915 | -81.86220 | 35195 ft | 423 kts | 321° |
| 2026-05-03 22:12 | 30.84179 | -81.89264 | 35161 ft | 423 kts | 321° |
| 2026-05-03 22:13 | 30.89473 | -81.92345 | 35155 ft | 422 kts | 321° |
| 2026-05-03 22:13 | 30.94701 | -81.95384 | 35144 ft | 423 kts | 321° |
| 2026-05-03 22:14 | 30.99963 | -81.98441 | 35198 ft | 422 kts | 321° |
| 2026-05-03 22:14 | 31.05224 | -82.01506 | 35179 ft | 423 kts | 321° |
| 2026-05-03 22:15 | 31.10484 | -82.04575 | 35143 ft | 423 kts | 321° |
| 2026-05-03 22:15 | 31.15744 | -82.07643 | 35140 ft | 423 kts | 321° |
| 2026-05-03 22:16 | 31.21004 | -82.10715 | 35142 ft | 423 kts | 321° |
| 2026-05-03 22:16 | 31.24393 | -82.12696 | 35140 ft | 423 kts | 321° |
| 2026-05-03 22:17 | 31.29648 | -82.15773 | 35160 ft | 423 kts | 321° |
| 2026-05-03 22:17 | 31.34894 | -82.18855 | 35142 ft | 422 kts | 321° |
| 2026-05-03 22:18 | 31.40138 | -82.21939 | 35131 ft | 422 kts | 321° |
| 2026-05-03 22:18 | 31.45354 | -82.24999 | 35128 ft | 422 kts | 321° |
| 2026-05-03 22:19 | 31.50600 | -82.28090 | 35134 ft | 422 kts | 321° |
| 2026-05-03 22:19 | 31.55840 | -82.31184 | 35133 ft | 422 kts | 321° |
| 2026-05-03 22:20 | 31.61086 | -82.34281 | 35156 ft | 422 kts | 321° |
| 2026-05-03 22:20 | 31.66332 | -82.37375 | 35160 ft | 422 kts | 321° |
| 2026-05-03 22:21 | 31.71568 | -82.40483 | 35161 ft | 421 kts | 321° |
| 2026-05-03 22:21 | 31.76801 | -82.43591 | 35150 ft | 421 kts | 321° |
| 2026-05-03 22:22 | 31.82036 | -82.46693 | 35147 ft | 421 kts | 321° |
| 2026-05-03 22:22 | 31.87271 | -82.49798 | 35146 ft | 421 kts | 321° |
| 2026-05-03 22:23 | 31.92494 | -82.52899 | 35130 ft | 420 kts | 321° |
| 2026-05-03 22:23 | 31.97457 | -82.56334 | 35127 ft | 402 kts | 309° |
| 2026-05-03 22:24 | 32.01661 | -82.60613 | 35124 ft | 399 kts | 308° |
| 2026-05-03 22:24 | 32.05864 | -82.64903 | 35123 ft | 400 kts | 308° |
| 2026-05-03 22:25 | 32.10082 | -82.69196 | 35126 ft | 401 kts | 308° |
| 2026-05-03 22:25 | 32.14298 | -82.73499 | 35161 ft | 400 kts | 308° |
| 2026-05-03 22:26 | 32.18505 | -82.77811 | 35135 ft | 401 kts | 308° |
| 2026-05-03 22:26 | 32.22730 | -82.82146 | 35109 ft | 404 kts | 308° |
| 2026-05-03 22:27 | 32.26925 | -82.86436 | 34729 ft | 393 kts | 308° |
| 2026-05-03 22:27 | 32.28981 | -82.88536 | 34310 ft | 387 kts | 308° |
| 2026-05-03 22:27 | 32.31000 | -82.90601 | 33535 ft | 381 kts | 308° |
| 2026-05-03 22:27 | 32.32990 | -82.92646 | 32735 ft | 377 kts | 308° |
| 2026-05-03 22:28 | 32.34927 | -82.94640 | 31971 ft | 372 kts | 308° |
| 2026-05-03 22:28 | 32.36865 | -82.96636 | 31241 ft | 367 kts | 309° |
| 2026-05-03 22:28 | 32.38806 | -82.98637 | 30520 ft | 363 kts | 309° |
| 2026-05-03 22:28 | 32.40677 | -83.00566 | 29932 ft | 362 kts | 309° |
| 2026-05-03 22:29 | 32.42569 | -83.02513 | 29493 ft | 359 kts | 309° |
| 2026-05-03 22:29 | 32.44439 | -83.04436 | 29216 ft | 354 kts | 310° |
| 2026-05-03 22:29 | 32.46288 | -83.06341 | 28822 ft | 351 kts | 310° |
| 2026-05-03 22:29 | 32.48126 | -83.08236 | 28422 ft | 348 kts | 310° |
| 2026-05-03 22:30 | 32.49945 | -83.10113 | 28060 ft | 345 kts | 310° |
| 2026-05-03 22:30 | 32.51750 | -83.11972 | 27669 ft | 342 kts | 310° |
| 2026-05-03 22:30 | 32.53541 | -83.13817 | 27280 ft | 340 kts | 310° |
| 2026-05-03 22:30 | 32.55297 | -83.15629 | 26894 ft | 338 kts | 311° |
| 2026-05-03 22:31 | 32.57062 | -83.17452 | 26495 ft | 336 kts | 311° |
| 2026-05-03 22:31 | 32.58816 | -83.19270 | 26097 ft | 334 kts | 311° |
| 2026-05-03 22:31 | 32.60561 | -83.21082 | 25685 ft | 333 kts | 311° |
| 2026-05-03 22:31 | 32.62301 | -83.22889 | 25261 ft | 332 kts | 311° |
| 2026-05-03 22:32 | 32.64038 | -83.24691 | 24852 ft | 332 kts | 312° |
| 2026-05-03 22:32 | 32.65773 | -83.26495 | 24423 ft | 332 kts | 312° |
| 2026-05-03 22:32 | 32.67505 | -83.28300 | 23999 ft | 332 kts | 312° |
| 2026-05-03 22:32 | 32.69243 | -83.30113 | 23541 ft | 332 kts | 313° |
| 2026-05-03 22:33 | 32.70980 | -83.31923 | 23072 ft | 332 kts | 313° |
| 2026-05-03 22:33 | 32.72713 | -83.33725 | 22643 ft | 330 kts | 313° |
| 2026-05-03 22:33 | 32.74437 | -83.35517 | 22210 ft | 329 kts | 313° |
| 2026-05-03 22:33 | 32.76152 | -83.37301 | 21776 ft | 327 kts | 313° |
| 2026-05-03 22:34 | 32.77860 | -83.39081 | 21349 ft | 326 kts | 313° |
| 2026-05-03 22:34 | 32.79559 | -83.40853 | 20928 ft | 325 kts | 313° |
| 2026-05-03 22:34 | 32.81256 | -83.42624 | 20500 ft | 324 kts | 314° |
| 2026-05-03 22:34 | 32.82949 | -83.44391 | 20073 ft | 323 kts | 314° |
| 2026-05-03 22:35 | 32.84614 | -83.46129 | 19656 ft | 323 kts | 314° |
| 2026-05-03 22:35 | 32.86303 | -83.47891 | 19229 ft | 323 kts | 314° |
| 2026-05-03 22:35 | 32.87989 | -83.49652 | 18804 ft | 322 kts | 314° |
| 2026-05-03 22:35 | 32.89674 | -83.51415 | 18368 ft | 323 kts | 314° |
| 2026-05-03 22:36 | 32.91359 | -83.53181 | 17904 ft | 322 kts | 314° |
| 2026-05-03 22:36 | 32.93040 | -83.54941 | 17430 ft | 322 kts | 315° |
| 2026-05-03 22:36 | 32.94719 | -83.56701 | 16938 ft | 322 kts | 315° |
| 2026-05-03 22:36 | 32.96385 | -83.58445 | 16726 ft | 314 kts | 315° |
| 2026-05-03 22:37 | 32.98017 | -83.60150 | 16395 ft | 311 kts | 315° |
| 2026-05-03 22:37 | 32.99642 | -83.61848 | 16028 ft | 310 kts | 315° |
| 2026-05-03 22:37 | 33.01253 | -83.63533 | 15616 ft | 306 kts | 316° |
| 2026-05-03 22:37 | 33.02840 | -83.65198 | 14983 ft | 303 kts | 316° |
| 2026-05-03 22:38 | 33.04410 | -83.66847 | 14532 ft | 301 kts | 316° |
| 2026-05-03 22:38 | 33.05980 | -83.68499 | 14133 ft | 302 kts | 316° |
| 2026-05-03 22:38 | 33.07557 | -83.70157 | 13715 ft | 302 kts | 316° |
| 2026-05-03 22:38 | 33.09133 | -83.71813 | 13304 ft | 302 kts | 316° |
| 2026-05-03 22:39 | 33.10706 | -83.73468 | 12906 ft | 301 kts | 316° |
| 2026-05-03 22:39 | 33.12274 | -83.75119 | 12515 ft | 300 kts | 316° |
| 2026-05-03 22:39 | 33.13836 | -83.76765 | 12124 ft | 299 kts | 316° |
| 2026-05-03 22:39 | 33.15376 | -83.78392 | 11791 ft | 290 kts | 316° |
| 2026-05-03 22:40 | 33.16869 | -83.79970 | 11355 ft | 286 kts | 317° |
| 2026-05-03 22:40 | 33.18336 | -83.81523 | 10988 ft | 286 kts | 317° |
| 2026-05-03 22:40 | 33.19809 | -83.83118 | 10643 ft | 285 kts | 315° |
| 2026-05-03 22:40 | 33.21225 | -83.84761 | 10291 ft | 284 kts | 314° |
| 2026-05-03 22:41 | 33.22633 | -83.86449 | 9921 ft | 284 kts | 314° |
| 2026-05-03 22:41 | 33.24144 | -83.87923 | 9676 ft | 278 kts | 323° |
| 2026-05-03 22:41 | 33.25709 | -83.89260 | 9389 ft | 275 kts | 323° |
| 2026-05-03 22:41 | 33.27242 | -83.90568 | 9066 ft | 273 kts | 323° |
| 2026-05-03 22:42 | 33.28787 | -83.91891 | 8716 ft | 272 kts | 323° |
| 2026-05-03 22:42 | 33.30322 | -83.93204 | 8393 ft | 271 kts | 323° |
| 2026-05-03 22:42 | 33.31849 | -83.94511 | 8085 ft | 269 kts | 323° |
| 2026-05-03 22:42 | 33.33367 | -83.95811 | 7800 ft | 267 kts | 324° |
| 2026-05-03 22:43 | 33.34879 | -83.97105 | 7558 ft | 267 kts | 324° |
| 2026-05-03 22:43 | 33.36387 | -83.98395 | 7311 ft | 266 kts | 324° |
| 2026-05-03 22:43 | 33.37889 | -83.99681 | 7081 ft | 265 kts | 324° |
| 2026-05-03 22:43 | 33.39385 | -84.00963 | 6840 ft | 264 kts | 324° |
| 2026-05-03 22:44 | 33.40880 | -84.02242 | 6605 ft | 264 kts | 324° |
| 2026-05-03 22:44 | 33.42366 | -84.03516 | 6348 ft | 262 kts | 324° |
| 2026-05-03 22:44 | 33.43847 | -84.04787 | 6093 ft | 261 kts | 324° |
| 2026-05-03 22:44 | 33.45321 | -84.06052 | 5835 ft | 259 kts | 324° |
| 2026-05-03 22:45 | 33.46758 | -84.07284 | 5581 ft | 255 kts | 324° |
| 2026-05-03 22:45 | 33.48166 | -84.08492 | 5328 ft | 243 kts | 323° |
| 2026-05-03 22:45 | 33.49505 | -84.09641 | 5107 ft | 229 kts | 323° |
| 2026-05-03 22:45 | 33.50761 | -84.10721 | 4879 ft | 218 kts | 323° |
| 2026-05-03 22:46 | 33.51987 | -84.11776 | 4709 ft | 219 kts | 323° |
| 2026-05-03 22:46 | 33.53222 | -84.12836 | 4554 ft | 217 kts | 323° |
| 2026-05-03 22:46 | 33.54448 | -84.13889 | 4403 ft | 216 kts | 323° |
| 2026-05-03 22:46 | 33.55667 | -84.14937 | 4252 ft | 215 kts | 323° |
| 2026-05-03 22:47 | 33.56883 | -84.15985 | 4099 ft | 215 kts | 322° |
| 2026-05-03 22:47 | 33.58100 | -84.17035 | 3944 ft | 215 kts | 322° |
| 2026-05-03 22:47 | 33.59304 | -84.18074 | 3799 ft | 211 kts | 322° |
| 2026-05-03 22:47 | 33.60457 | -84.19111 | 3646 ft | 204 kts | 314° |
| 2026-05-03 22:48 | 33.61231 | -84.20508 | 3606 ft | 203 kts | 296° |
| 2026-05-03 22:48 | 33.61843 | -84.22041 | 3603 ft | 204 kts | 294° |
| 2026-05-03 22:48 | 33.62428 | -84.23570 | 3620 ft | 196 kts | 294° |
| 2026-05-03 22:48 | 33.62968 | -84.24991 | 3619 ft | 182 kts | 292° |
| 2026-05-03 22:49 | 33.63180 | -84.26463 | 3593 ft | 180 kts | 271° |
| 2026-05-03 22:49 | 33.63178 | -84.27950 | 3325 ft | 174 kts | 271° |
| 2026-05-03 22:49 | 33.63176 | -84.29386 | 3075 ft | 170 kts | 271° |
| 2026-05-03 22:49 | 33.63176 | -84.30791 | 2846 ft | 165 kts | 272° |
| 2026-05-03 22:50 | 33.63177 | -84.32125 | 2633 ft | 157 kts | 271° |
| 2026-05-03 22:50 | 33.63177 | -84.33359 | 2430 ft | 141 kts | 272° |
| 2026-05-03 22:50 | 33.63179 | -84.34516 | 2251 ft | 139 kts | 271° |
| 2026-05-03 22:50 | 33.63179 | -84.35649 | 2073 ft | 138 kts | 271° |
| 2026-05-03 22:51 | 33.63180 | -84.36790 | 1890 ft | 137 kts | 271° |
| 2026-05-03 22:51 | 33.63178 | -84.37934 | 1699 ft | 137 kts | 270° |
| 2026-05-03 22:51 | 33.63170 | -84.39065 | 1523 ft | 134 kts | 271° |
| 2026-05-03 22:51 | 33.63176 | -84.40188 | 1331 ft | 134 kts | 271° |
| 2026-05-03 22:52 | 33.63182 | -84.41321 | 1141 ft | 136 kts | 271° |
| 2026-05-03 22:52 | 33.63180 | -84.42086 | 1034 ft | 135 kts | 271° |
| 2026-05-03 22:52 | 33.63184 | -84.43094 | 1009 ft | 92 kts | 270° |
| 2026-05-03 22:52 | 33.63181 | -84.43668 | 1007 ft | 36 kts | 270° |
| 2026-05-03 22:53 | 33.63185 | -84.43973 | 1004 ft | 36 kts | 277° |
| 2026-05-03 22:53 | 33.63247 | -84.44209 | 1005 ft | 28 kts | 297° |
| 2026-05-03 22:53 | 33.63332 | -84.44257 | 1006 ft | 12 kts | 23° |
| 2026-05-03 22:53 | 33.63367 | -84.44225 | 1006 ft | 1 kts | 39° |
| 2026-05-03 22:54 | 33.63378 | -84.44214 | 1006 ft | 7 kts | 39° |
| 2026-05-03 22:54 | 33.63450 | -84.44193 | 1006 ft | 15 kts | 358° |
| 2026-05-03 22:54 | 33.63560 | -84.44194 | 1007 ft | 15 kts | 0° |
| 2026-05-03 22:54 | 33.63641 | -84.44179 | 1007 ft | 12 kts | 37° |
| 2026-05-03 22:55 | 33.63664 | -84.44076 | 1007 ft | 14 kts | 90° |
| 2026-05-03 22:55 | 33.63664 | -84.43945 | 1006 ft | 17 kts | 90° |
| 2026-05-03 22:55 | 33.63664 | -84.43796 | 1006 ft | 19 kts | 90° |
| 2026-05-03 22:55 | 33.63664 | -84.43627 | 1006 ft | 21 kts | 90° |
| 2026-05-03 22:56 | 33.63664 | -84.43458 | 1006 ft | 19 kts | 84° |
| 2026-05-03 22:56 | 33.63763 | -84.43392 | 1006 ft | 14 kts | 358° |
| 2026-05-03 22:56 | 33.63809 | -84.43394 | 1006 ft | 6 kts | 358° |
| 2026-05-03 22:56 | 33.63861 | -84.43395 | 1006 ft | 9 kts | 359° |
| 2026-05-03 22:57 | 33.63906 | -84.43395 | 1006 ft | 4 kts | 0° |
| 2026-05-03 22:57 | 33.63936 | -84.43380 | 1006 ft | 6 kts | 39° |
| 2026-05-03 22:57 | 33.63943 | -84.43334 | 1006 ft | 4 kts | 91° |
| 2026-05-03 22:57 | 33.63943 | -84.43328 | 1006 ft | 0 kts | 90° |